Kiritimati, Kiritimati Cassidy International Airport (PLCH)

NameKiritimati Cassidy International Airport
CityKiritimati
CountryKiribati
ICAOPLCH
IATACXI
Altitude2 m
CoordinatesGoogle Map
Live Air TrafficLiveATC.net
METARPLCH 121300Z 10006KT 9999 FEW019 SCT040 28/24 Q1007
2018-12-12 13:00:00 Wind: East (100°) 3.09 m/s - Visibility: > 10000 m - Temperature: 28 °C - Dew point: 24 °C - Humidity: 78.9% - Pressure: 1007 hPa
Statistics

The table below shows the detailed information of all flights to/from Kiritimati, Kiritimati Cassidy International Airport (PLCH).